Time;durP1;ratioP1;P1;durP2;ratioP2;P2;SDS_P1;SDS_P2;PMS_P1;PMS_P2;Temp;Humidity;BMP_temperature;BMP_pressure;BME280_temperature;BME280_humidity;BME280_pressure;Samples;Min_cycle;Max_cycle;Signal;HPM_P1;HPM_P2
2022/01/06 00:01:02;;;;;;;3.93;1.83;;;7.30;69.50;;;10.14;53.35;100928.44;4861230;29;20189;-62
2022/01/06 00:03:32;;;;;;;3.50;0.87;;;7.20;69.10;;;10.07;53.17;100932.69;4860621;29;20227;-62
2022/01/06 00:06:04;;;;;;;2.90;1.50;;;7.20;69.30;;;10.02;53.38;100936.78;4861157;29;20271;-61
2022/01/06 00:08:34;;;;;;;2.17;1.00;;;7.10;69.10;;;9.95;53.44;100938.44;4860144;29;20208;-62
2022/01/06 00:11:02;;;;;;;4.70;1.17;;;7.10;68.80;;;9.88;52.38;100943.53;4861124;29;20195;-61
2022/01/06 00:13:43;;;;;;;3.47;1.27;;;7.00;67.60;;;9.80;52.30;100945.34;4860561;29;20591;-62
2022/01/06 00:16:29;;;;;;;3.13;1.20;;;6.90;67.90;;;9.75;52.11;100963.41;4861279;29;20282;-62
2022/01/06 00:24:16;;;;;;;2.03;0.97;;;6.80;67.60;;;9.56;52.42;100977.69;4860965;29;20635;-62
2022/01/06 00:26:43;;;;;;;3.30;1.60;;;6.70;68.20;;;9.52;52.71;100974.56;4860902;29;20192;-62
2022/01/06 00:29:11;;;;;;;1.93;1.03;;;6.70;67.50;;;9.49;52.69;100969.63;4860806;29;20276;-63
2022/01/06 00:31:38;;;;;;;2.90;1.60;;;6.70;67.70;;;9.46;52.79;100980.44;4860520;29;20203;-62
2022/01/06 00:34:10;;;;;;;1.73;0.73;;;6.60;67.40;;;9.42;52.18;100979.13;4860387;29;20213;-61
2022/01/06 00:36:38;;;;;;;2.23;0.90;;;6.50;67.40;;;9.39;52.32;100986.50;4860894;29;20202;-62
2022/01/06 00:39:06;;;;;;;1.20;0.70;;;6.50;67.30;;;9.35;52.34;100991.28;4860422;29;20537;-62
2022/01/06 00:41:36;;;;;;;3.23;1.37;;;6.50;67.30;;;9.31;52.43;100982.06;4860914;29;20201;-61
2022/01/06 00:44:06;;;;;;;2.10;0.90;;;6.40;66.90;;;9.27;51.81;100996.50;4860454;29;20222;-62
2022/01/06 00:46:33;;;;;;;4.07;1.07;;;6.40;66.90;;;9.24;52.03;100991.59;4859874;29;20560;-63
2022/01/06 00:49:01;;;;;;;3.37;0.83;;;6.40;66.70;;;9.20;51.68;101000.72;4860847;29;20205;-62
2022/01/06 00:51:30;;;;;;;4.83;1.17;;;6.30;66.50;;;9.17;51.96;101003.69;4860907;29;20205;-62
2022/01/06 00:53:57;;;;;;;2.60;0.90;;;6.20;66.50;;;9.14;51.60;101009.25;4860316;29;20593;-62
2022/01/06 00:56:25;;;;;;;2.67;1.00;;;6.20;66.40;;;9.10;51.93;101009.75;4860347;29;20668;-63
2022/01/06 00:58:52;;;;;;;2.17;1.10;;;6.20;66.60;;;9.07;51.34;101010.88;4860660;29;20206;-61
2022/01/06 01:01:20;;;;;;;6.50;1.10;;;6.10;66.20;;;9.05;52.52;101015.47;4860461;29;20198;-62
2022/01/06 01:03:47;;;;;;;2.33;0.93;;;6.00;67.90;;;9.04;52.77;101016.44;4860011;29;20292;-62
2022/01/06 01:06:15;;;;;;;2.20;1.03;;;6.00;68.10;;;9.07;53.39;101016.13;4860712;29;20209;-62
2022/01/06 01:08:44;;;;;;;2.43;1.10;;;6.10;69.30;;;9.13;52.94;101027.81;4860534;29;20234;-61
2022/01/06 01:11:11;;;;;;;1.80;1.30;;;6.20;68.20;;;9.17;52.86;101040.47;4860656;29;20220;-62
2022/01/06 01:13:54;;;;;;;5.53;1.33;;;6.20;68.80;;;9.22;53.53;101030.28;4859905;29;20229;-63
2022/01/06 01:16:27;;;;;;;5.03;1.43;;;6.30;69.20;;;9.28;53.25;101032.28;4860485;29;20208;-62
2022/01/06 01:18:57;;;;;;;5.50;0.97;;;6.40;68.90;;;9.35;52.24;101040.34;4860677;29;20198;-60
2022/01/06 01:21:26;;;;;;;1.77;0.83;;;6.40;67.80;;;9.37;52.28;101043.63;4863574;29;20196;-62
2022/01/06 01:23:57;;;;;;;3.13;1.13;;;6.50;67.80;;;9.39;52.27;101045.13;4863031;29;20225;-62
2022/01/06 01:26:26;;;;;;;1.67;1.00;;;6.50;66.20;;;9.40;51.38;101056.47;4863745;29;20240;-63
2022/01/06 01:28:54;;;;;;;3.20;1.03;;;6.50;65.50;;;9.38;51.02;101056.63;4863459;29;20282;-63
2022/01/06 01:33:51;;;;;;;3.73;1.70;;;6.40;65.00;;;9.32;50.86;101078.25;4863118;29;20217;-62
2022/01/06 01:36:20;;;;;;;3.50;1.57;;;6.40;64.30;;;9.29;50.80;101083.84;4863877;29;20251;-63
2022/01/06 01:38:47;;;;;;;1.13;0.80;;;6.30;64.40;;;9.24;50.85;101086.13;4863652;29;20680;-62
2022/01/06 01:41:16;;;;;;;5.23;1.13;;;6.30;64.70;;;9.19;50.77;101088.38;4863733;29;20193;-61
2022/01/06 01:43:46;;;;;;;3.13;1.33;;;6.20;64.90;;;9.15;50.87;101091.50;4863075;29;20231;-62
2022/01/06 01:46:17;;;;;;;3.20;1.40;;;6.20;64.90;;;9.10;50.70;101099.00;4863319;29;20205;-62
2022/01/06 01:49:11;;;;;;;1.97;1.07;;;6.10;65.30;;;9.06;51.15;101097.66;4863653;29;20245;-63
2022/01/06 01:51:34;;;;;;;5.07;1.57;;;6.10;65.90;;;9.05;51.94;101107.34;4863504;29;20202;-63
2022/01/06 01:54:01;;;;;;;7.97;1.47;;;6.10;67.10;;;9.06;51.75;101103.72;4862833;29;20247;-63
2022/01/06 01:56:30;;;;;;;5.47;1.30;;;6.10;66.90;;;9.09;51.34;101107.84;4863441;29;20198;-62
2022/01/06 01:58:58;;;;;;;3.90;1.67;;;6.10;66.10;;;9.10;51.39;101118.22;4863309;29;20477;-62
2022/01/06 02:01:25;;;;;;;3.20;1.10;;;6.10;65.90;;;9.08;51.40;101120.16;4863033;29;20206;-62
2022/01/06 02:03:53;;;;;;;3.07;1.20;;;6.10;65.80;;;9.06;50.90;101134.41;4862579;29;20238;-62
2022/01/06 02:06:20;;;;;;;3.20;1.27;;;6.10;65.80;;;9.02;50.91;101139.16;4863241;29;20281;-61
2022/01/06 02:08:48;;;;;;;2.27;0.97;;;6.00;65.80;;;8.95;51.16;101132.88;4863072;29;20706;-62
2022/01/06 02:11:15;;;;;;;3.00;0.90;;;6.00;65.90;;;8.91;50.93;101133.34;4863193;29;20205;-62
2022/01/06 02:13:47;;;;;;;3.13;0.87;;;5.90;66.00;;;8.83;51.34;101128.84;4862718;29;20587;-61
2022/01/06 02:16:20;;;;;;;3.17;0.90;;;5.90;66.20;;;8.75;51.22;101134.03;4863070;29;20230;-62
2022/01/06 02:18:49;;;;;;;1.40;0.90;;;5.80;66.20;;;8.69;51.29;101142.53;4862677;29;20214;-61
2022/01/06 02:21:19;;;;;;;7.00;1.40;;;5.70;66.30;;;8.64;51.67;101150.88;4863423;29;20209;-61
2022/01/06 02:23:47;;;;;;;2.97;1.17;;;5.70;66.80;;;8.60;51.65;101143.44;4862890;29;20656;-62
2022/01/06 02:26:15;;;;;;;7.30;1.40;;;5.70;67.00;;;8.55;52.01;101146.53;4863020;29;20219;-61
2022/01/06 02:28:42;;;;;;;2.87;1.47;;;5.60;67.50;;;8.50;52.28;101142.69;4863309;29;20201;-60
2022/01/06 02:31:10;;;;;;;1.97;1.20;;;5.60;67.80;;;8.45;52.32;101144.94;4862836;29;20701;-59
2022/01/06 02:33:38;;;;;;;3.27;1.23;;;5.50;67.90;;;8.43;52.58;101152.16;4862285;29;20303;-59
2022/01/06 02:36:06;;;;;;;4.73;1.13;;;5.50;68.40;;;8.42;52.42;101166.22;4862776;29;20587;-60
2022/01/06 02:38:34;;;;;;;2.23;1.17;;;5.40;69.40;;;8.38;52.51;101157.84;4863080;29;20197;-60
2022/01/06 02:41:02;;;;;;;5.70;1.73;;;5.40;68.90;;;8.38;52.99;101170.97;4862641;29;20680;-57
2022/01/06 02:43:31;;;;;;;4.73;1.30;;;5.40;69.20;;;8.40;53.13;101178.66;4862093;29;20288;-60
2022/01/06 02:45:58;;;;;;;5.53;1.20;;;5.40;69.50;;;8.40;53.13;101181.28;4862408;29;20201;-59
2022/01/06 02:48:26;;;;;;;3.57;1.00;;;5.40;69.50;;;8.38;53.08;101178.00;4862655;29;20192;-59
2022/01/06 02:50:54;;;;;;;2.80;1.00;;;5.40;69.40;;;8.38;53.20;101175.38;4862275;29;20202;-62
2022/01/06 02:53:21;;;;;;;3.17;1.10;;;5.40;69.40;;;8.37;52.88;101178.97;4862268;29;20222;-62
2022/01/06 02:55:53;;;;;;;3.87;1.10;;;5.30;69.40;;;8.34;53.11;101184.53;4862536;29;20194;-60
2022/01/06 02:58:40;;;;;;;3.40;1.10;;;5.30;69.20;;;8.28;53.26;101182.47;4862370;29;20205;-62
2022/01/06 03:01:08;;;;;;;1.87;0.97;;;5.30;69.20;;;8.25;53.24;101188.81;4862455;29;20251;-62
2022/01/06 03:03:35;;;;;;;2.13;0.60;;;5.30;69.40;;;8.23;53.24;101187.31;4861808;29;20306;-62
2022/01/06 03:06:03;;;;;;;7.33;1.23;;;5.20;69.60;;;8.22;53.37;101190.91;4862378;29;20193;-62
2022/01/06 03:08:30;;;;;;;3.83;1.00;;;5.20;69.70;;;8.20;53.57;101199.75;4861866;29;20289;-62
2022/01/06 03:10:59;;;;;;;3.20;1.40;;;5.20;69.80;;;8.19;53.69;101207.75;4862122;29;20194;-62
2022/01/06 03:13:26;;;;;;;4.30;1.13;;;5.20;69.90;;;8.16;53.53;101197.56;4862004;29;20682;-62
2022/01/06 03:15:53;;;;;;;4.77;0.87;;;5.20;70.00;;;8.13;53.66;101203.94;4862115;29;20218;-62
2022/01/06 03:18:21;;;;;;;2.07;1.10;;;5.20;70.00;;;8.10;53.75;101199.00;4845918;29;20571;-63
2022/01/06 03:20:48;;;;;;;2.70;1.37;;;5.10;70.30;;;8.11;53.55;101210.28;4862088;29;20615;-62
2022/01/06 03:23:16;;;;;;;3.63;1.20;;;5.20;70.70;;;8.09;53.79;101207.81;4861301;29;20220;-63
2022/01/06 03:25:43;;;;;;;2.70;1.43;;;5.10;70.60;;;8.09;54.08;101212.22;4862051;29;20210;-62
2022/01/06 03:28:12;;;;;;;3.57;1.60;;;5.10;70.70;;;8.07;53.95;101214.19;4861955;29;20221;-62
2022/01/06 03:30:40;;;;;;;3.07;1.23;;;5.10;70.90;;;8.05;53.97;101216.97;4861973;29;20208;-62
2022/01/06 03:33:07;;;;;;;4.17;1.50;;;5.00;70.80;;;8.04;54.04;101215.28;4861393;29;20590;-62
2022/01/06 03:35:35;;;;;;;1.53;1.23;;;5.00;71.00;;;8.02;54.54;101216.41;4861690;29;20648;-63
2022/01/06 03:38:02;;;;;;;3.50;1.13;;;5.00;71.10;;;7.97;54.19;101227.34;4861764;29;20205;-62
2022/01/06 03:40:29;;;;;;;3.57;1.30;;;5.00;71.20;;;7.92;54.48;101232.19;4861651;29;20559;-62
2022/01/06 03:42:57;;;;;;;5.57;1.87;;;5.00;71.30;;;7.86;54.90;101232.78;4859982;29;20221;-62
2022/01/06 03:45:25;;;;;;;3.57;1.93;;;5.00;71.40;;;7.80;54.97;101241.19;4861646;29;20654;-62
2022/01/06 03:47:53;;;;;;;3.77;1.43;;;4.90;71.50;;;7.75;55.10;101243.41;4861732;29;20697;-62
2022/01/06 03:50:21;;;;;;;4.37;1.07;;;4.90;71.80;;;7.72;55.35;101251.59;4861467;29;20680;-62
2022/01/06 03:52:48;;;;;;;4.63;1.50;;;4.90;71.80;;;7.69;55.78;101251.88;4860995;29;20207;-62
2022/01/06 03:55:19;;;;;;;6.23;1.37;;;4.80;71.90;;;7.66;55.49;101249.53;4861422;29;20196;-63
2022/01/06 03:57:48;;;;;;;2.53;1.40;;;4.80;72.30;;;7.64;55.78;101248.84;4859970;29;20205;-62
2022/01/06 04:00:18;;;;;;;5.47;1.83;;;4.80;72.70;;;7.61;56.17;101254.38;4861599;29;20205;-62
2022/01/06 04:02:48;;;;;;;6.20;1.70;;;4.80;72.70;;;7.61;55.94;101254.38;4861615;29;20677;-62
2022/01/06 04:05:16;;;;;;;5.87;1.67;;;4.70;72.80;;;7.65;56.35;101270.63;4860088;29;20316;-63
2022/01/06 04:07:44;;;;;;;3.67;1.80;;;4.70;72.90;;;7.68;56.53;101284.25;4861407;29;20201;-63
2022/01/06 04:10:11;;;;;;;6.20;1.90;;;4.70;73.20;;;7.73;56.20;101283.81;4861438;29;20204;-65
2022/01/06 04:12:39;;;;;;;3.83;1.40;;;4.80;73.40;;;7.78;56.00;101292.94;4860557;29;20228;-62
2022/01/06 04:15:12;;;;;;;4.37;2.00;;;4.80;73.50;;;7.84;56.08;101302.84;4860790;29;20613;-64
2022/01/06 04:17:40;;;;;;;2.13;1.30;;;4.80;73.60;;;7.92;56.10;101300.31;4861172;29;20201;-63
2022/01/06 04:20:12;;;;;;;5.57;1.87;;;4.80;73.60;;;8.00;55.75;101302.22;4861147;29;20201;-64
2022/01/06 04:22:41;;;;;;;5.13;1.73;;;4.90;73.60;;;8.07;55.81;101301.50;4860627;29;20219;-65
2022/01/06 04:25:10;;;;;;;3.77;1.20;;;4.90;73.50;;;8.14;55.68;101305.22;4860891;29;20231;-62
2022/01/06 04:27:38;;;;;;;4.53;1.30;;;5.00;73.40;;;8.24;55.99;101320.06;4861550;29;20526;-63
2022/01/06 04:30:07;;;;;;;5.90;1.73;;;5.00;73.40;;;8.30;55.46;101324.75;4860752;29;20678;-62
2022/01/06 04:32:35;;;;;;;3.73;1.47;;;5.10;73.10;;;8.36;54.53;101326.81;4860800;29;20202;-63
2022/01/06 04:35:04;;;;;;;5.57;1.60;;;5.10;72.90;;;8.41;54.94;101328.03;4861243;29;20685;-62
2022/01/06 04:37:33;;;;;;;5.53;1.00;;;5.20;72.60;;;8.46;54.88;101324.97;4861423;29;20194;-62
2022/01/06 04:40:01;;;;;;;4.77;1.30;;;5.20;72.50;;;8.49;54.65;101325.47;4861248;29;20197;-63
2022/01/06 04:42:29;;;;;;;1.90;1.40;;;5.30;72.10;;;8.54;54.78;101327.66;4861121;29;20205;-60
2022/01/06 04:44:56;;;;;;;4.00;1.30;;;5.30;71.90;;;8.54;54.67;101322.41;4861750;29;20220;-64
2022/01/06 04:47:23;;;;;;;3.20;1.40;;;5.30;71.60;;;8.54;54.64;101327.66;4860335;29;20212;-64
2022/01/06 04:49:51;;;;;;;2.27;1.10;;;5.40;71.50;;;8.51;54.23;101327.97;4860756;29;20217;-63
2022/01/06 04:52:18;;;;;;;5.10;1.40;;;5.40;71.30;;;8.50;54.47;101331.56;4861431;29;20265;-61
2022/01/06 04:54:47;;;;;;;5.10;1.40;;;5.40;70.90;;;8.48;54.28;101333.50;4862123;29;20217;-61
2022/01/06 04:57:15;;;;;;;3.07;1.10;;;5.40;70.60;;;8.46;54.01;101341.50;4864404;29;20225;-61
2022/01/06 04:59:43;;;;;;;2.23;1.73;;;5.40;70.40;;;8.45;53.82;101349.53;4864339;29;20197;-62
2022/01/06 05:02:10;;;;;;;3.60;1.27;;;5.40;70.30;;;8.41;53.93;101342.94;4864215;29;20673;-62
2022/01/06 05:04:38;;;;;;;3.73;1.40;;;5.50;70.40;;;8.36;54.17;101340.75;4863918;29;20232;-60
2022/01/06 05:07:06;;;;;;;5.57;1.77;;;5.40;70.20;;;8.31;54.27;101353.47;4864250;29;20206;-61
2022/01/06 05:09:33;;;;;;;1.20;0.80;;;5.40;70.10;;;8.28;54.03;101358.16;4864394;29;20198;-62
2022/01/06 05:12:03;;;;;;;2.43;1.20;;;5.40;70.10;;;8.24;54.16;101351.53;4864071;29;20196;-60
2022/01/06 05:14:31;;;;;;;1.73;1.13;;;5.30;70.10;;;8.17;54.26;101352.13;4863699;29;20570;-61
2022/01/06 05:16:59;;;;;;;4.20;1.17;;;5.30;70.10;;;8.12;54.43;101349.09;4863342;29;20200;-62
2022/01/06 05:19:27;;;;;;;4.20;1.27;;;5.30;70.10;;;8.08;54.41;101352.16;4863848;29;20279;-61
2022/01/06 05:21:55;;;;;;;3.67;1.57;;;5.20;70.10;;;8.05;54.26;101355.88;4864227;29;20674;-65
2022/01/06 05:24:24;;;;;;;2.47;1.73;;;5.20;70.10;;;8.03;54.30;101349.94;4865212;29;20229;-64
2022/01/06 05:26:55;;;;;;;4.10;1.60;;;5.20;70.20;;;8.04;54.51;101350.75;4865404;29;20198;-64
2022/01/06 05:29:25;;;;;;;4.83;1.60;;;5.10;70.20;;;8.03;54.28;101351.75;4865299;29;20200;-62
2022/01/06 05:31:52;;;;;;;4.87;1.73;;;5.10;70.30;;;8.03;54.41;101351.75;4865847;29;20212;-66
2022/01/06 05:34:19;;;;;;;5.33;1.77;;;5.10;70.10;;;8.01;54.12;101358.94;4864427;29;20217;-63
2022/01/06 05:36:47;;;;;;;2.93;1.30;;;5.10;70.10;;;7.98;54.15;101354.81;4864097;29;20197;-64
2022/01/06 05:39:14;;;;;;;3.03;1.30;;;5.10;70.10;;;7.96;54.22;101358.53;4863751;29;20683;-63
2022/01/06 05:41:41;;;;;;;5.70;1.63;;;5.00;70.00;;;7.94;54.11;101355.22;4863998;29;20271;-63
2022/01/06 05:44:09;;;;;;;4.57;1.10;;;5.00;70.10;;;7.93;54.43;101364.06;4862881;29;20224;-63
2022/01/06 05:46:38;;;;;;;4.23;1.40;;;5.00;70.10;;;7.90;54.38;101359.91;4862148;29;20209;-63
2022/01/06 05:49:06;;;;;;;8.17;1.10;;;5.00;70.10;;;7.87;53.93;101365.44;4863399;29;20225;-64
2022/01/06 05:51:33;;;;;;;5.20;1.50;;;4.90;69.90;;;7.83;54.02;101368.47;4863076;29;20202;-63
2022/01/06 05:54:01;;;;;;;3.13;1.10;;;4.90;70.00;;;7.80;54.29;101377.44;4863012;29;20216;-63
2022/01/06 05:56:28;;;;;;;4.43;1.40;;;4.90;70.10;;;7.75;54.32;101371.78;4863331;29;20275;-62
2022/01/06 05:58:56;;;;;;;3.30;1.63;;;4.90;70.40;;;7.74;54.33;101378.03;4863298;29;20670;-63
2022/01/06 06:01:23;;;;;;;3.43;1.10;;;4.80;70.20;;;7.73;54.68;101378.13;4863073;29;20688;-64
2022/01/06 06:03:54;;;;;;;3.90;1.03;;;4.80;70.50;;;7.69;54.40;101372.38;4862308;29;20561;-62
2022/01/06 06:06:21;;;;;;;3.37;1.10;;;4.80;70.60;;;7.69;54.77;101372.38;4861098;29;20277;-64
2022/01/06 06:08:49;;;;;;;5.10;1.50;;;4.70;70.80;;;7.69;54.66;101382.84;4862841;29;20280;-61
2022/01/06 06:11:16;;;;;;;1.87;1.30;;;4.70;71.20;;;7.70;55.23;101384.50;4863032;29;20197;-62
2022/01/06 06:13:43;;;;;;;3.13;1.20;;;4.70;71.30;;;7.71;54.93;101394.00;4861423;29;20217;-64
2022/01/06 06:16:11;;;;;;;3.53;1.27;;;4.80;71.40;;;7.73;54.90;101399.94;4862914;29;20197;-62
2022/01/06 06:18:38;;;;;;;5.80;1.53;;;4.80;71.50;;;7.79;55.02;101406.41;4862909;29;20279;-62
2022/01/06 06:21:08;;;;;;;3.23;1.30;;;4.80;71.60;;;7.81;54.82;101412.34;4861374;29;20197;-62
2022/01/06 06:23:36;;;;;;;4.83;1.20;;;4.80;71.80;;;7.82;54.92;101409.56;4862751;29;20303;-63
2022/01/06 06:26:03;;;;;;;3.77;1.20;;;4.80;71.70;;;7.81;54.85;101423.66;4862530;29;20308;-63
2022/01/06 06:28:30;;;;;;;3.00;1.00;;;4.80;71.70;;;7.79;55.07;101419.53;4862522;29;20206;-63
2022/01/06 06:30:58;;;;;;;7.03;1.57;;;4.80;71.60;;;7.76;55.08;101425.88;4862490;29;20201;-61
2022/01/06 06:33:25;;;;;;;2.33;0.93;;;4.90;71.70;;;7.75;55.32;101426.81;4862417;29;20566;-60
2022/01/06 06:35:53;;;;;;;6.43;1.50;;;4.90;71.70;;;7.75;55.11;101429.44;4862418;29;20201;-61
2022/01/06 06:38:22;;;;;;;2.67;1.40;;;4.90;72.00;;;7.73;55.53;101441.03;4862450;29;20194;-62
2022/01/06 06:40:50;;;;;;;2.30;1.30;;;4.90;72.80;;;7.71;55.26;101438.56;4861014;29;20225;-62
2022/01/06 06:43:18;;;;;;;3.20;1.40;;;4.80;71.90;;;7.71;55.68;101438.56;4860685;29;20217;-62
2022/01/06 06:45:45;;;;;;;2.67;1.10;;;4.80;72.00;;;7.71;55.42;101449.03;4862123;29;20595;-63
2022/01/06 06:48:13;;;;;;;8.20;1.70;;;4.90;72.00;;;7.72;55.71;101444.63;4862338;29;20681;-63
2022/01/06 06:50:40;;;;;;;3.27;1.53;;;4.90;72.30;;;7.70;55.57;101436.06;4862102;29;20726;-61
2022/01/06 06:53:08;;;;;;;5.33;1.47;;;4.80;72.20;;;7.67;55.83;101446.81;4861756;29;20216;-56
2022/01/06 06:55:37;;;;;;;4.20;1.03;;;4.80;72.20;;;7.63;55.97;101456.75;4862450;29;20197;-62
2022/01/06 06:58:04;;;;;;;3.53;1.93;;;4.80;72.30;;;7.60;56.28;101457.03;4861796;29;20257;-62
2022/01/06 07:00:32;;;;;;;3.20;1.23;;;4.80;72.30;;;7.57;56.14;101457.31;4862342;29;20188;-61
2022/01/06 07:03:00;;;;;;;3.53;1.10;;;4.80;72.50;;;7.55;56.35;101468.88;4861751;29;20570;-61
2022/01/06 07:05:29;;;;;;;6.10;1.70;;;4.80;72.70;;;7.53;56.45;101461.16;4862126;29;20222;-59
2022/01/06 07:07:56;;;;;;;4.90;1.50;;;4.80;72.90;;;7.52;56.69;101464.75;4862211;29;20272;-63
2022/01/06 07:10:24;;;;;;;3.90;1.30;;;4.70;73.00;;;7.50;56.92;101471.91;4861461;29;20276;-62
2022/01/06 07:12:53;;;;;;;4.70;1.93;;;4.70;73.20;;;7.50;56.59;101477.16;4860846;29;20686;-62
2022/01/06 07:15:21;;;;;;;5.83;1.80;;;4.70;73.30;;;7.50;56.80;101477.16;4861411;29;20237;-61
2022/01/06 07:17:49;;;;;;;4.37;1.60;;;4.70;73.40;;;7.53;56.75;101492.59;4861588;29;20196;-62
2022/01/06 07:20:16;;;;;;;8.80;1.80;;;4.70;73.50;;;7.56;56.71;101497.53;4861748;29;20565;-62
2022/01/06 07:22:44;;;;;;;5.13;1.80;;;4.70;73.80;;;7.58;56.79;101495.63;4861163;29;20565;-66
2022/01/06 07:25:11;;;;;;;6.33;1.77;;;4.70;73.80;;;7.58;56.64;101506.13;4861324;29;20284;-63
2022/01/06 07:27:39;;;;;;;7.20;1.47;;;4.70;73.70;;;7.59;56.62;101502.53;4861778;29;20228;-64
2022/01/06 07:30:10;;;;;;;8.13;1.63;;;4.70;73.80;;;7.59;56.59;101497.28;4861298;29;20228;-64
2022/01/06 07:32:46;;;;;;;2.73;1.33;;;4.70;73.80;;;7.61;56.54;101507.63;4860752;29;20231;-62
2022/01/06 07:35:15;;;;;;;4.37;1.40;;;4.70;73.80;;;7.60;56.69;101504.19;4862139;29;20340;-64
2022/01/06 07:37:42;;;;;;;7.20;1.70;;;4.70;73.60;;;7.60;56.98;101506.81;4861559;29;20617;-63
2022/01/06 07:40:15;;;;;;;3.47;1.57;;;4.70;73.50;;;7.59;56.70;101507.75;4861306;29;20257;-63
2022/01/06 07:42:43;;;;;;;5.27;1.97;;;4.70;73.50;;;7.58;56.73;101511.34;4860343;29;20280;-60
2022/01/06 07:45:12;;;;;;;7.20;1.90;;;4.70;73.50;;;7.59;56.84;101514.78;4861395;29;20387;-64
2022/01/06 07:47:54;;;;;;;6.43;2.07;;;4.70;73.50;;;7.59;56.45;101518.22;4861411;29;20230;-64
2022/01/06 07:50:23;;;;;;;5.30;2.10;;;4.70;73.50;;;7.60;56.46;101521.69;4861263;29;20281;-64
2022/01/06 07:52:51;;;;;;;4.70;1.80;;;4.70;73.60;;;7.61;56.73;101520.75;4860811;29;20818;-64
2022/01/06 07:55:18;;;;;;;4.37;1.80;;;4.70;73.80;;;7.61;56.59;101526.78;4860989;29;20202;-62
2022/01/06 07:57:46;;;;;;;5.50;1.80;;;4.70;73.90;;;7.61;56.66;101532.00;4860893;29;20287;-62
2022/01/06 08:00:16;;;;;;;6.60;2.00;;;4.70;73.80;;;7.63;56.90;101540.56;4861407;29;20659;-62
2022/01/06 08:02:44;;;;;;;4.27;2.03;;;4.70;73.90;;;7.67;56.70;101541.97;4860384;29;20193;-63
2022/01/06 08:05:14;;;;;;;6.53;1.90;;;4.70;74.00;;;7.72;56.62;101545.00;4861074;29;20231;-64
2022/01/06 08:07:42;;;;;;;5.33;1.60;;;4.70;74.00;;;7.75;56.49;101542.09;4860335;29;20678;-63
2022/01/06 08:10:10;;;;;;;8.07;2.30;;;4.70;74.20;;;7.81;56.63;101549.44;4859448;29;20208;-64
2022/01/06 08:12:38;;;;;;;3.63;1.93;;;4.70;74.10;;;7.86;56.66;101552.47;4860839;29;20287;-64
2022/01/06 08:15:07;;;;;;;6.40;3.17;;;4.80;74.10;;;7.92;56.63;101559.78;4860667;29;20208;-63
2022/01/06 08:17:36;;;;;;;5.30;2.23;;;4.80;74.10;;;7.96;56.67;101558.53;4860917;29;20194;-64
2022/01/06 08:20:06;;;;;;;4.73;2.30;;;4.90;74.20;;;8.02;56.14;101558.00;4856954;29;20651;-64
2022/01/06 08:22:33;;;;;;;7.90;2.50;;;4.90;73.50;;;8.06;56.18;101559.38;4842638;29;20253;-63
2022/01/06 08:25:02;;;;;;;5.73;1.70;;;5.00;73.40;;;8.10;56.09;101566.00;4846390;29;20732;-64
2022/01/06 08:27:29;;;;;;;4.97;1.90;;;5.00;73.20;;;8.13;55.94;101564.88;4860102;29;20265;-63
2022/01/06 08:29:56;;;;;;;6.70;2.40;;;5.00;73.20;;;8.15;55.99;101562.97;4862863;29;20205;-64
2022/01/06 08:32:24;;;;;;;7.40;1.80;;;5.00;72.70;;;8.18;55.66;101566.13;4866421;29;20190;-65
2022/01/06 08:34:52;;;;;;;4.63;1.90;;;5.10;72.60;;;8.22;55.60;101569.31;4865661;29;20304;-65
2022/01/06 08:37:20;;;;;;;6.87;2.47;;;5.10;72.80;;;8.28;55.83;101571.41;4866713;29;20192;-64
2022/01/06 08:39:47;;;;;;;4.97;2.00;;;5.20;72.90;;;8.33;55.86;101571.81;4866528;29;20238;-65
2022/01/06 08:42:14;;;;;;;8.00;2.43;;;5.20;72.70;;;8.37;55.64;101572.38;4866844;29;20196;-65
2022/01/06 08:44:42;;;;;;;9.77;2.30;;;5.30;72.60;;;8.44;55.71;101576.09;4866346;29;20593;-65
2022/01/06 08:47:10;;;;;;;4.83;2.30;;;5.40;72.60;;;8.51;55.70;101574.56;4867066;29;20201;-65
2022/01/06 08:49:40;;;;;;;9.63;2.70;;;5.40;72.60;;;8.59;55.35;101585.16;4865017;29;20200;-65
2022/01/06 08:52:10;;;;;;;9.27;3.00;;;5.50;71.40;;;8.62;54.82;101598.84;4848187;29;20248;-65
2022/01/06 08:54:38;;;;;;;11.53;2.83;;;5.50;71.20;;;8.64;54.57;101593.44;4848447;29;20241;-65
2022/01/06 08:57:06;;;;;;;7.90;3.03;;;5.60;71.10;;;8.66;54.84;101594.13;4848382;29;20520;-65
2022/01/06 08:59:34;;;;;;;5.93;2.50;;;5.60;71.20;;;8.71;54.69;101602.41;4852530;29;20714;-65
2022/01/06 09:02:02;;;;;;;8.83;3.60;;;5.60;71.50;;;8.78;54.78;101595.63;4867240;29;20201;-65
2022/01/06 09:04:30;;;;;;;9.00;3.70;;;5.70;71.30;;;8.83;54.71;101596.03;4857235;29;20695;-65
2022/01/06 09:06:58;;;;;;;8.80;2.90;;;5.70;70.90;;;8.88;54.46;101593.81;4864653;29;20644;-65
2022/01/06 09:09:27;;;;;;;8.40;3.23;;;5.80;71.00;;;8.93;54.59;101594.22;4864215;29;20212;-65
2022/01/06 09:11:55;;;;;;;11.27;6.00;;;5.90;70.90;;;8.98;54.79;101599.88;4862340;29;20309;-65
2022/01/06 09:14:32;;;;;;;13.40;3.40;;;5.90;71.10;;;9.04;53.97;101596.66;4848369;29;20217;-66
2022/01/06 09:17:00;;;;;;;6.07;2.77;;;6.00;70.30;;;9.10;54.17;101601.34;4863718;29;20200;-65
2022/01/06 09:19:28;;;;;;;11.23;2.60;;;6.00;69.80;;;9.15;53.77;101603.53;4865815;29;20250;-64
2022/01/06 09:21:56;;;;;;;7.27;2.60;;;6.10;69.60;;;9.18;53.66;101598.81;4865923;29;20206;-65
2022/01/06 09:24:23;;;;;;;7.13;2.83;;;6.10;69.20;;;9.19;53.53;101602.28;4847535;29;20242;-65
2022/01/06 09:26:52;;;;;;;7.40;2.20;;;6.10;68.90;;;9.20;53.14;101603.94;4856480;29;20224;-66
2022/01/06 09:29:19;;;;;;;9.27;2.80;;;6.10;68.60;;;9.20;53.49;101606.56;4866001;29;20192;-66
2022/01/06 09:31:46;;;;;;;9.73;3.77;;;6.10;69.00;;;9.24;52.87;101610.56;4865383;29;20236;-65
2022/01/06 09:34:14;;;;;;;6.80;2.90;;;6.20;69.20;;;9.28;53.42;101615.38;4865736;29;20214;-65
2022/01/06 09:36:42;;;;;;;12.13;2.70;;;6.20;69.40;;;9.33;53.02;101620.19;4849384;29;20659;-65
2022/01/06 09:39:12;;;;;;;10.03;3.83;;;6.20;69.00;;;9.36;53.13;101617.28;4866312;29;20217;-65
2022/01/06 09:41:40;;;;;;;8.87;4.57;;;6.30;68.90;;;9.38;52.94;101615.34;4864144;29;20208;-66
2022/01/06 09:44:09;;;;;;;10.23;4.47;;;6.30;68.90;;;9.41;53.03;101613.22;4862553;29;20208;-66
2022/01/06 09:46:57;;;;;;;5.77;2.60;;;6.30;69.30;;;9.48;52.98;101630.06;4862184;29;20239;-65
2022/01/06 09:49:25;;;;;;;11.83;2.93;;;6.40;68.60;;;9.52;52.81;101626.19;4861501;29;20291;-65
2022/01/06 09:51:52;;;;;;;8.90;3.57;;;6.40;68.10;;;9.56;52.69;101621.47;4863631;29;20231;-66
2022/01/06 09:54:20;;;;;;;8.93;2.87;;;6.40;68.30;;;9.61;52.24;101621.00;4863379;29;20221;-65
2022/01/06 09:56:47;;;;;;;8.23;2.90;;;6.50;68.10;;;9.67;52.58;101623.06;4862831;29;20198;-68
2022/01/06 09:59:16;;;;;;;13.30;3.63;;;6.50;68.10;;;9.74;51.84;101629.41;4862914;29;20218;-65
2022/01/06 10:01:44;;;;;;;6.63;2.93;;;6.60;68.00;;;9.81;52.54;101627.84;4862672;29;20218;-65
2022/01/06 10:04:19;;;;;;;11.17;3.17;;;6.70;68.20;;;9.89;52.21;101633.19;4862093;29;20626;-63
2022/01/06 10:06:59;;;;;;;5.47;2.60;;;6.70;67.30;;;9.94;52.19;101638.81;4862361;29;20769;-65
2022/01/06 10:09:27;;;;;;;7.33;2.90;;;6.80;68.00;;;10.05;51.47;101643.88;4862799;29;20196;-65
2022/01/06 10:11:57;;;;;;;14.07;3.00;;;6.90;67.00;;;10.17;51.59;101646.16;4862745;29;20207;-65
2022/01/06 10:14:39;;;;;;;6.80;2.70;;;7.00;66.80;;;10.55;51.97;101647.69;4862612;29;20248;-65
2022/01/06 10:17:08;;;;;;;10.57;3.87;;;7.10;68.00;;;11.23;51.67;101647.81;4863007;29;20245;-65
2022/01/06 10:19:40;;;;;;;11.20;3.57;;;7.50;68.20;;;11.85;50.61;101638.72;4860991;29;20231;-65
2022/01/06 10:22:14;;;;;;;12.13;3.40;;;7.90;67.70;;;12.54;49.24;101648.91;4862318;29;20235;-64
2022/01/06 10:24:44;;;;;;;8.03;3.37;;;8.50;66.10;;;13.17;47.98;101647.19;4862689;29;20708;-65
2022/01/06 10:27:14;;;;;;;8.73;3.37;;;9.00;63.40;;;13.68;47.03;101639.75;4862648;29;20319;-65
2022/01/06 10:29:46;;;;;;;9.53;5.40;;;9.60;63.40;;;13.88;45.43;101636.50;4862576;29;20200;-65
2022/01/06 10:32:16;;;;;;;9.20;3.53;;;10.00;60.50;;;13.92;44.77;101642.28;4862370;29;20192;-66
2022/01/06 10:34:48;;;;;;;9.77;2.93;;;10.20;58.30;;;13.77;43.93;101641.38;4862839;29;20240;-66
2022/01/06 10:37:21;;;;;;;14.70;7.80;;;10.30;56.60;;;13.51;43.86;101639.84;4860870;29;20638;-66
2022/01/06 10:39:51;;;;;;;6.80;3.33;;;10.20;55.90;;;13.27;44.04;101633.78;4861930;29;20732;-66